Time;durP1;ratioP1;P1;durP2;ratioP2;P2;SDS_P1;SDS_P2;PMS_P1;PMS_P2;Temp;Humidity;BMP_temperature;BMP_pressure;BME280_temperature;BME280_humidity;BME280_pressure;Samples;Min_cycle;Max_cycle;Signal;HPM_P1;HPM_P2
2021/08/11 00:01:09;;;;;;;9.85;4.75;;;;;;;;;;4985250;28;20026;-71
2021/08/11 00:03:35;;;;;;;9.40;5.40;;;;;;;;;;4985367;28;20031;-71
2021/08/11 00:06:01;;;;;;;11.23;4.78;;;;;;;;;;4988384;28;20026;-71
2021/08/11 00:08:27;;;;;;;8.63;5.18;;;;;;;;;;4987905;28;20470;-71
2021/08/11 00:10:52;;;;;;;11.07;5.32;;;;;;;;;;4988849;28;20480;-71
2021/08/11 00:13:18;;;;;;;9.50;5.18;;;;;;;;;;4988137;28;20026;-71
2021/08/11 00:15:44;;;;;;;8.25;5.28;;;;;;;;;;4988206;28;20113;-71
2021/08/11 00:18:10;;;;;;;7.50;5.18;;;;;;;;;;4986319;28;20073;-71
2021/08/11 00:20:36;;;;;;;8.90;5.18;;;;;;;;;;5000636;28;20100;-71
2021/08/11 00:23:03;;;;;;;9.85;5.60;;;;;;;;;;4987111;28;20523;-71
2021/08/11 00:25:29;;;;;;;8.60;5.53;;;;;;;;;;4988739;28;20529;-71
2021/08/11 00:27:55;;;;;;;11.43;5.30;;;;;;;;;;4991921;28;20080;-71
2021/08/11 00:30:21;;;;;;;8.55;5.20;;;;;;;;;;4988750;28;20034;-71
2021/08/11 00:32:47;;;;;;;14.95;5.50;;;;;;;;;;4992403;28;20045;-71
2021/08/11 00:35:12;;;;;;;7.97;5.32;;;;;;;;;;4988094;28;20391;-71
2021/08/11 00:37:38;;;;;;;10.35;4.88;;;;;;;;;;4989405;28;20360;-71
2021/08/11 00:40:06;;;;;;;9.02;5.10;;;;;;;;;;5002432;28;20100;-71
2021/08/11 00:42:31;;;;;;;10.02;5.07;;;;;;;;;;4998996;28;20538;-71
2021/08/11 00:45:00;;;;;;;9.20;5.50;;;;;;;;;;4989155;28;20033;-71
2021/08/11 00:47:29;;;;;;;10.30;5.50;;;;;;;;;;4994715;28;20117;-71
2021/08/11 00:49:55;;;;;;;8.57;4.97;;;;;;;;;;4994620;28;20022;-71
2021/08/11 00:52:21;;;;;;;10.00;5.03;;;;;;;;;;5000418;28;20447;-71
2021/08/11 00:54:47;;;;;;;12.40;5.85;;;;;;;;;;4991361;28;20548;-71
2021/08/11 00:57:14;;;;;;;8.85;4.93;;;;;;;;;;4980188;28;20034;-71
2021/08/11 00:59:40;;;;;;;9.52;4.68;;;;;;;;;;4983939;28;20030;-71
2021/08/11 01:02:07;;;;;;;8.25;4.63;;;;;;;;;;4987338;28;20030;-71
2021/08/11 01:04:33;;;;;;;9.55;5.68;;;;;;;;;;4994728;28;20027;-71
2021/08/11 01:07:00;;;;;;;8.88;5.03;;;;;;;;;;5005701;28;20182;-71
2021/08/11 01:09:26;;;;;;;10.50;5.43;;;;;;;;;;4995955;28;20030;-71
2021/08/11 01:11:54;;;;;;;10.25;5.45;;;;;;;;;;5008571;28;20042;-71
2021/08/11 01:14:20;;;;;;;8.10;5.30;;;;;;;;;;5008450;28;20061;-72
2021/08/11 01:16:46;;;;;;;9.90;4.63;;;;;;;;;;4990604;28;20330;-71
2021/08/11 01:19:12;;;;;;;11.35;5.38;;;;;;;;;;4996283;28;20030;-71
2021/08/11 01:22:15;;;;;;;15.05;6.35;;;;;;;;;;4984186;28;20033;-71
2021/08/11 01:24:44;;;;;;;14.00;5.88;;;;;;;;;;4933980;29;20028;-71
2021/08/11 01:27:29;;;;;;;12.80;5.95;;;;;;;;;;4983451;28;20523;-71
2021/08/11 01:30:01;;;;;;;11.73;5.82;;;;;;;;;;4985406;28;20036;-71
2021/08/11 01:32:46;;;;;;;12.32;6.05;;;;;;;;;;4979140;28;20442;-71
2021/08/11 01:35:13;;;;;;;12.02;6.68;;;;;;;;;;4987361;28;20065;-71
2021/08/11 01:37:39;;;;;;;13.18;5.95;;;;;;;;;;4991098;28;20041;-72
2021/08/11 01:40:06;;;;;;;9.52;5.55;;;;;;;;;;4993905;28;20534;-72
2021/08/11 01:42:36;;;;;;;12.23;5.68;;;;;;;;;;4983948;28;20050;-71
2021/08/11 01:45:03;;;;;;;14.05;6.80;;;;;;;;;;5002177;28;20505;-72
2021/08/11 01:47:50;;;;;;;11.80;6.22;;;;;;;;;;4986828;28;20121;-72
2021/08/11 01:50:17;;;;;;;9.43;6.22;;;;;;;;;;4990148;28;20022;-72
2021/08/11 01:52:44;;;;;;;10.73;6.00;;;;;;;;;;4989913;28;20038;-70
2021/08/11 01:55:11;;;;;;;12.30;6.00;;;;;;;;;;4989908;28;20053;-70
2021/08/11 01:57:46;;;;;;;14.38;7.30;;;;;;;;;;4982770;28;20034;-70
2021/08/11 02:00:13;;;;;;;13.95;7.93;;;;;;;;;;4991279;28;20415;-71
2021/08/11 02:02:40;;;;;;;15.95;7.45;;;;;;;;;;4989511;28;20236;-70
2021/08/11 02:05:06;;;;;;;13.45;8.05;;;;;;;;;;4985448;28;20037;-71
2021/08/11 02:07:33;;;;;;;15.68;8.13;;;;;;;;;;4982727;28;20034;-70
2021/08/11 02:10:00;;;;;;;12.45;7.70;;;;;;;;;;4990412;28;20024;-70
2021/08/11 02:12:26;;;;;;;11.82;7.88;;;;;;;;;;4989765;28;20062;-70
2021/08/11 02:14:52;;;;;;;15.60;8.90;;;;;;;;;;4989512;28;20068;-70
2021/08/11 02:17:19;;;;;;;17.50;8.70;;;;;;;;;;4998052;28;20073;-70
2021/08/11 02:19:46;;;;;;;18.00;9.23;;;;;;;;;;4995321;28;20018;-70
2021/08/11 02:22:12;;;;;;;15.95;8.50;;;;;;;;;;4989641;28;20105;-70
2021/08/11 02:24:38;;;;;;;18.63;8.27;;;;;;;;;;4986685;28;20129;-70
2021/08/11 02:27:20;;;;;;;13.45;8.23;;;;;;;;;;4989712;28;20041;-70
2021/08/11 02:30:05;;;;;;;20.70;8.43;;;;;;;;;;4989292;28;20117;-70
2021/08/11 02:32:35;;;;;;;17.25;9.40;;;;;;;;;;4996039;28;20116;-70
2021/08/11 02:35:01;;;;;;;;;;;;;;;;;;4986312;28;20023;-70
2021/08/11 02:37:49;;;;;;;18.13;8.95;;;;;;;;;;4977301;28;19963;-70
2021/08/11 02:40:18;;;;;;;14.85;8.85;;;;;;;;;;4989655;28;20035;-70
2021/08/11 02:42:46;;;;;;;17.50;9.32;;;;;;;;;;4988886;28;20582;-70
2021/08/11 02:45:14;;;;;;;21.17;10.07;;;;;;;;;;4987460;28;20221;-70
2021/08/11 02:47:41;;;;;;;20.45;10.20;;;;;;;;;;4996960;28;20030;-70
2021/08/11 02:50:07;;;;;;;17.88;9.02;;;;;;;;;;4993494;28;20099;-71
2021/08/11 02:52:34;;;;;;;17.48;9.50;;;;;;;;;;4981019;28;20106;-70
2021/08/11 02:55:00;;;;;;;20.83;9.50;;;;;;;;;;4989344;28;20503;-70
2021/08/11 02:57:26;;;;;;;20.52;9.30;;;;;;;;;;4988471;28;20026;-70
2021/08/11 02:59:52;;;;;;;18.63;10.02;;;;;;;;;;4987420;28;20036;-70
2021/08/11 03:02:18;;;;;;;18.30;9.40;;;;;;;;;;4988344;28;20026;-70
2021/08/11 03:04:44;;;;;;;17.65;9.40;;;;;;;;;;4990429;28;20026;-70
2021/08/11 03:07:10;;;;;;;17.02;9.52;;;;;;;;;;4989971;28;20057;-70
2021/08/11 03:09:36;;;;;;;15.38;9.70;;;;;;;;;;4988160;28;20033;-70
2021/08/11 03:12:06;;;;;;;20.10;9.77;;;;;;;;;;4982271;28;20034;-70
2021/08/11 03:14:32;;;;;;;14.82;10.13;;;;;;;;;;4983609;28;20027;-70
2021/08/11 03:16:58;;;;;;;22.27;10.32;;;;;;;;;;4984388;28;20061;-70
2021/08/11 03:19:24;;;;;;;22.48;9.52;;;;;;;;;;4992034;28;20065;-70
2021/08/11 03:21:50;;;;;;;19.10;10.07;;;;;;;;;;4988818;28;20034;-70
2021/08/11 03:24:18;;;;;;;19.88;10.02;;;;;;;;;;4988212;28;20032;-70
2021/08/11 03:26:44;;;;;;;19.75;10.40;;;;;;;;;;4988690;28;20038;-70
2021/08/11 03:29:10;;;;;;;20.08;9.85;;;;;;;;;;4987182;28;20124;-70
2021/08/11 03:31:36;;;;;;;21.38;10.55;;;;;;;;;;4993390;28;20399;-70
2021/08/11 03:34:02;;;;;;;21.15;10.38;;;;;;;;;;4989006;28;20460;-70
2021/08/11 03:36:28;;;;;;;17.90;10.57;;;;;;;;;;4987802;28;20030;-70
2021/08/11 03:38:54;;;;;;;19.00;10.70;;;;;;;;;;4984045;28;20027;-70
2021/08/11 03:41:20;;;;;;;19.17;10.88;;;;;;;;;;5008113;28;20029;-71
2021/08/11 03:43:46;;;;;;;20.20;10.90;;;;;;;;;;5006009;28;20405;-70
2021/08/11 03:46:12;;;;;;;20.33;12.05;;;;;;;;;;5006071;28;20038;-71
2021/08/11 03:48:38;;;;;;;19.52;11.23;;;;;;;;;;4990795;28;20022;-70
2021/08/11 03:51:04;;;;;;;26.02;11.32;;;;;;;;;;4992846;28;20426;-70
2021/08/11 03:53:30;;;;;;;24.05;11.13;;;;;;;;;;4993071;28;20042;-70
2021/08/11 03:55:56;;;;;;;22.55;11.40;;;;;;;;;;4988824;28;20088;-70
2021/08/11 03:58:22;;;;;;;23.52;10.68;;;;;;;;;;4988428;28;20502;-70
2021/08/11 04:00:48;;;;;;;22.90;11.98;;;;;;;;;;4989415;28;20514;-70
2021/08/11 04:03:14;;;;;;;24.00;12.63;;;;;;;;;;4986783;28;20109;-70
2021/08/11 04:05:39;;;;;;;21.88;12.40;;;;;;;;;;4995234;28;20299;-70
2021/08/11 04:08:06;;;;;;;22.40;13.13;;;;;;;;;;4990947;28;20042;-70
2021/08/11 04:10:31;;;;;;;31.40;14.63;;;;;;;;;;4992038;28;20034;-70
2021/08/11 04:12:57;;;;;;;27.33;13.95;;;;;;;;;;4986062;28;20026;-72
2021/08/11 04:15:23;;;;;;;27.60;13.77;;;;;;;;;;5002968;28;20371;-72
2021/08/11 04:17:49;;;;;;;28.50;13.70;;;;;;;;;;4989860;28;20053;-71
2021/08/11 04:20:15;;;;;;;30.55;14.45;;;;;;;;;;4991886;28;20046;-71
2021/08/11 04:22:41;;;;;;;27.67;14.35;;;;;;;;;;4989937;28;20030;-72
2021/08/11 04:25:07;;;;;;;31.45;15.50;;;;;;;;;;4992158;28;20026;-71
2021/08/11 04:27:33;;;;;;;34.88;16.25;;;;;;;;;;4990350;28;20472;-71
2021/08/11 04:29:59;;;;;;;31.55;15.20;;;;;;;;;;4985017;28;20073;-71
2021/08/11 04:32:25;;;;;;;27.55;13.02;;;;;;;;;;4994771;28;20469;-71
2021/08/11 04:34:51;;;;;;;30.85;14.48;;;;;;;;;;4998840;28;20403;-71
2021/08/11 04:37:17;;;;;;;24.38;14.10;;;;;;;;;;4994570;28;20113;-71
2021/08/11 04:39:43;;;;;;;29.20;14.20;;;;;;;;;;4987127;28;20487;-71
2021/08/11 04:42:09;;;;;;;28.00;15.07;;;;;;;;;;4997943;28;20022;-71
2021/08/11 04:44:35;;;;;;;27.25;13.05;;;;;;;;;;4995367;28;20411;-71
2021/08/11 04:47:01;;;;;;;25.80;12.57;;;;;;;;;;4985719;28;20038;-71
2021/08/11 04:49:27;;;;;;;27.60;13.27;;;;;;;;;;4997194;28;20034;-71
2021/08/11 04:51:53;;;;;;;24.70;13.20;;;;;;;;;;4999274;28;20062;-71
2021/08/11 04:54:19;;;;;;;36.10;16.23;;;;;;;;;;4990976;28;20039;-71
2021/08/11 04:56:45;;;;;;;28.20;15.20;;;;;;;;;;4993903;28;20023;-71
2021/08/11 04:59:11;;;;;;;28.60;14.35;;;;;;;;;;4990991;28;20093;-71
2021/08/11 05:01:37;;;;;;;30.17;15.75;;;;;;;;;;4990872;28;20105;-72
2021/08/11 05:04:03;;;;;;;30.13;13.88;;;;;;;;;;4990590;28;20038;-72
2021/08/11 05:06:29;;;;;;;33.22;14.63;;;;;;;;;;4997664;28;20037;-71
2021/08/11 05:08:56;;;;;;;29.70;13.93;;;;;;;;;;4989893;28;20069;-71
2021/08/11 05:11:22;;;;;;;28.23;14.00;;;;;;;;;;4985332;28;20023;-71
2021/08/11 05:13:48;;;;;;;24.48;14.80;;;;;;;;;;4989444;28;20041;-71
2021/08/11 05:16:14;;;;;;;29.25;15.52;;;;;;;;;;4990597;28;20030;-71
2021/08/11 05:18:40;;;;;;;27.38;14.40;;;;;;;;;;4983456;28;20063;-71
2021/08/11 05:21:06;;;;;;;24.40;14.13;;;;;;;;;;5000179;28;20029;-71
2021/08/11 05:23:32;;;;;;;29.48;15.00;;;;;;;;;;4986028;28;20031;-71
2021/08/11 05:25:58;;;;;;;25.98;12.93;;;;;;;;;;4990593;28;20026;-70
2021/08/11 05:28:24;;;;;;;23.65;13.18;;;;;;;;;;4985006;28;20495;-71
2021/08/11 05:30:50;;;;;;;21.73;11.80;;;;;;;;;;4987580;28;20035;-70
2021/08/11 05:33:16;;;;;;;19.35;11.93;;;;;;;;;;4986534;28;20037;-70
2021/08/11 05:35:42;;;;;;;19.15;11.10;;;;;;;;;;4987748;28;20034;-70
2021/08/11 05:38:08;;;;;;;19.10;11.10;;;;;;;;;;4992687;28;20105;-70
2021/08/11 05:40:34;;;;;;;22.13;11.95;;;;;;;;;;4980115;28;20299;-70
2021/08/11 05:43:00;;;;;;;21.42;11.07;;;;;;;;;;4990885;28;20018;-71
2021/08/11 05:45:26;;;;;;;21.25;11.43;;;;;;;;;;4989449;28;20084;-71
2021/08/11 05:47:51;;;;;;;19.25;12.10;;;;;;;;;;4990148;28;20030;-70
2021/08/11 05:50:17;;;;;;;21.83;11.77;;;;;;;;;;4997959;28;20033;-70
2021/08/11 05:52:43;;;;;;;19.08;11.05;;;;;;;;;;4989787;28;20035;-71
2021/08/11 05:55:09;;;;;;;17.92;9.38;;;;;;;;;;5000322;28;20030;-70
2021/08/11 05:57:39;;;;;;;17.13;8.82;;;;;;;;;;4989832;28;20030;-70
2021/08/11 06:00:06;;;;;;;13.63;8.77;;;;;;;;;;5002957;28;20102;-71
2021/08/11 06:02:34;;;;;;;20.92;9.82;;;;;;;;;;4987239;28;20555;-71
2021/08/11 06:05:00;;;;;;;17.83;9.02;;;;;;;;;;4988996;28;20030;-71
2021/08/11 06:07:26;;;;;;;20.65;9.40;;;;;;;;;;4989685;28;20068;-70
2021/08/11 06:09:51;;;;;;;17.00;9.80;;;;;;;;;;4990407;28;20030;-71
2021/08/11 06:12:17;;;;;;;15.85;9.35;;;;;;;;;;4990513;28;20414;-71
2021/08/11 06:14:43;;;;;;;13.57;8.27;;;;;;;;;;4992617;28;20026;-71
2021/08/11 06:17:09;;;;;;;11.90;8.63;;;;;;;;;;5009775;28;20472;-71
2021/08/11 06:19:35;;;;;;;16.42;9.07;;;;;;;;;;4997418;28;20030;-71
2021/08/11 06:22:01;;;;;;;13.45;8.50;;;;;;;;;;4996854;28;20513;-71
2021/08/11 06:24:27;;;;;;;17.35;9.10;;;;;;;;;;4994320;28;20037;-71
2021/08/11 06:26:53;;;;;;;16.92;8.95;;;;;;;;;;4998708;28;20041;-70
2021/08/11 06:29:19;;;;;;;13.60;8.73;;;;;;;;;;4996201;28;20042;-71
2021/08/11 06:31:45;;;;;;;17.80;8.90;;;;;;;;;;4990406;28;20024;-71
2021/08/11 06:34:11;;;;;;;13.43;8.73;;;;;;;;;;4996701;28;20027;-71
2021/08/11 06:36:37;;;;;;;14.07;8.30;;;;;;;;;;4981440;28;20045;-71
2021/08/11 06:39:03;;;;;;;12.80;8.38;;;;;;;;;;4989559;28;20031;-71
2021/08/11 06:41:29;;;;;;;16.77;8.98;;;;;;;;;;4982962;28;20161;-71
2021/08/11 06:43:55;;;;;;;17.02;8.98;;;;;;;;;;4989026;28;20109;-71
2021/08/11 06:46:21;;;;;;;14.02;8.38;;;;;;;;;;4991342;28;20045;-71
2021/08/11 06:48:47;;;;;;;16.25;8.38;;;;;;;;;;5000868;28;20034;-71
2021/08/11 06:51:13;;;;;;;15.55;9.43;;;;;;;;;;4988863;28;20031;-71
2021/08/11 06:53:39;;;;;;;12.68;8.32;;;;;;;;;;4988559;28;22552;-71
2021/08/11 06:56:05;;;;;;;14.57;7.82;;;;;;;;;;4987394;28;20068;-71
2021/08/11 06:58:31;;;;;;;16.23;7.78;;;;;;;;;;4992414;28;20041;-71
2021/08/11 07:00:59;;;;;;;17.95;9.55;;;;;;;;;;4988521;28;20034;-71
2021/08/11 07:03:25;;;;;;;16.13;7.95;;;;;;;;;;4984971;28;20030;-71
2021/08/11 07:05:51;;;;;;;16.83;7.88;;;;;;;;;;4986622;28;20034;-71
2021/08/11 07:08:17;;;;;;;15.25;8.50;;;;;;;;;;4987339;28;20022;-71
2021/08/11 07:10:43;;;;;;;13.45;8.07;;;;;;;;;;4979362;28;20480;-71
2021/08/11 07:13:09;;;;;;;15.82;8.05;;;;;;;;;;4985675;28;20030;-71
2021/08/11 07:15:35;;;;;;;13.27;8.65;;;;;;;;;;4981094;28;20035;-71
2021/08/11 07:18:01;;;;;;;15.65;7.75;;;;;;;;;;4977107;28;20026;-70
2021/08/11 07:20:29;;;;;;;15.32;7.53;;;;;;;;;;4979279;28;20440;-70
2021/08/11 07:22:58;;;;;;;16.02;7.80;;;;;;;;;;5002350;28;20032;-71
2021/08/11 07:25:24;;;;;;;13.70;7.38;;;;;;;;;;4998408;28;20026;-70
2021/08/11 07:27:50;;;;;;;12.70;7.47;;;;;;;;;;4986491;28;20765;-70
2021/08/11 07:30:16;;;;;;;14.55;7.45;;;;;;;;;;4983230;28;20030;-71
2021/08/11 07:32:43;;;;;;;12.15;7.10;;;;;;;;;;4985341;28;20022;-70
2021/08/11 07:35:09;;;;;;;13.05;7.60;;;;;;;;;;4984079;28;20035;-71
2021/08/11 07:37:44;;;;;;;12.55;7.63;;;;;;;;;;4985464;28;20094;-70
2021/08/11 07:40:12;;;;;;;14.73;7.78;;;;;;;;;;4983475;28;20026;-70
2021/08/11 07:42:39;;;;;;;12.50;8.18;;;;;;;;;;4987353;28;20092;-71
2021/08/11 07:45:05;;;;;;;14.50;7.55;;;;;;;;;;4992052;28;20037;-71
2021/08/11 07:47:31;;;;;;;12.00;6.70;;;;;;;;;;4993079;28;20092;-70
2021/08/11 07:49:57;;;;;;;14.55;7.45;;;;;;;;;;4995237;28;20034;-70
2021/08/11 07:52:22;;;;;;;17.92;6.30;;;;;;;;;;4993900;28;20038;-70
2021/08/11 07:54:48;;;;;;;17.67;6.45;;;;;;;;;;4986747;28;20032;-71
2021/08/11 07:57:14;;;;;;;11.02;5.80;;;;;;;;;;4992560;28;20499;-70
2021/08/11 07:59:40;;;;;;;11.00;5.82;;;;;;;;;;4997758;28;20023;-71
2021/08/11 08:02:10;;;;;;;14.85;5.88;;;;;;;;;;4990891;28;20028;-72
2021/08/11 08:04:36;;;;;;;13.00;6.32;;;;;;;;;;4988458;28;20415;-72
2021/08/11 08:07:02;;;;;;;9.88;6.40;;;;;;;;;;4984904;28;20440;-72
2021/08/11 08:09:28;;;;;;;11.68;6.13;;;;;;;;;;4989675;28;20480;-72
2021/08/11 08:11:54;;;;;;;12.43;5.60;;;;;;;;;;4988531;28;20037;-72
2021/08/11 08:14:20;;;;;;;14.15;6.55;;;;;;;;;;4997718;28;20033;-72
2021/08/11 08:16:46;;;;;;;10.13;5.05;;;;;;;;;;4986503;28;20062;-73
2021/08/11 08:19:12;;;;;;;14.85;6.88;;;;;;;;;;4996701;28;20061;-72
2021/08/11 08:21:38;;;;;;;15.93;5.57;;;;;;;;;;5001397;28;20467;-72
2021/08/11 08:24:04;;;;;;;10.98;5.63;;;;;;;;;;4995733;28;20030;-72
2021/08/11 08:26:31;;;;;;;11.98;5.63;;;;;;;;;;4983176;28;20057;-72
2021/08/11 08:28:57;;;;;;;9.93;4.80;;;;;;;;;;4993220;28;20022;-72
2021/08/11 08:31:22;;;;;;;11.40;4.07;;;;;;;;;;4991328;28;20084;-72
2021/08/11 08:33:48;;;;;;;13.00;5.03;;;;;;;;;;4991126;28;20072;-72
2021/08/11 08:36:14;;;;;;;8.85;4.75;;;;;;;;;;4989916;28;20038;-72
2021/08/11 08:38:40;;;;;;;10.85;4.13;;;;;;;;;;4987372;28;20023;-72
2021/08/11 08:41:06;;;;;;;11.45;4.03;;;;;;;;;;4993246;28;20834;-72
2021/08/11 08:43:32;;;;;;;12.40;4.55;;;;;;;;;;4985998;28;20022;-72
2021/08/11 08:45:58;;;;;;;8.10;4.60;;;;;;;;;;4994989;28;20026;-72
2021/08/11 08:48:25;;;;;;;8.85;4.40;;;;;;;;;;4995106;28;20408;-72
2021/08/11 08:50:51;;;;;;;9.77;4.75;;;;;;;;;;4997479;28;20018;-73
2021/08/11 08:53:22;;;;;;;14.68;4.47;;;;;;;;;;4999085;28;20132;-73
2021/08/11 08:55:48;;;;;;;10.63;4.15;;;;;;;;;;4988210;28;20052;-73
2021/08/11 08:58:13;;;;;;;7.80;3.15;;;;;;;;;;4988394;28;20480;-73
2021/08/11 09:00:40;;;;;;;8.35;3.03;;;;;;;;;;4986211;28;20424;-74
2021/08/11 09:03:06;;;;;;;7.60;3.05;;;;;;;;;;4990946;28;20026;-74
2021/08/11 09:05:32;;;;;;;8.65;3.55;;;;;;;;;;4986538;28;20026;-73
2021/08/11 09:07:57;;;;;;;8.95;3.50;;;;;;;;;;4988689;28;20026;-74
2021/08/11 09:10:25;;;;;;;8.55;3.88;;;;;;;;;;4997738;28;20026;-73
2021/08/11 09:12:53;;;;;;;7.93;3.00;;;;;;;;;;4986959;28;20485;-73
2021/08/11 09:15:30;;;;;;;6.97;2.65;;;;;;;;;;4985379;28;20085;-72
2021/08/11 09:17:56;;;;;;;10.18;2.60;;;;;;;;;;4991308;28;20481;-72
2021/08/11 09:20:23;;;;;;;6.50;2.97;;;;;;;;;;4990999;28;20053;-72
2021/08/11 09:22:50;;;;;;;6.53;2.67;;;;;;;;;;4988284;28;20035;-72
2021/08/11 09:25:16;;;;;;;6.45;2.58;;;;;;;;;;4978003;28;20027;-72
2021/08/11 09:27:43;;;;;;;8.85;2.92;;;;;;;;;;4986183;28;20082;-72
2021/08/11 09:30:11;;;;;;;6.38;2.88;;;;;;;;;;4980463;28;20082;-72
2021/08/11 09:32:49;;;;;;;7.55;2.65;;;;;;;;;;4983624;28;20026;-72
2021/08/11 09:35:26;;;;;;;5.60;2.50;;;;;;;;;;4977310;28;20023;-72
2021/08/11 09:37:53;;;;;;;7.20;2.65;;;;;;;;;;4983788;28;20026;-72
2021/08/11 09:40:20;;;;;;;7.38;2.83;;;;;;;;;;4979410;28;20065;-72
2021/08/11 09:42:47;;;;;;;8.20;3.30;;;;;;;;;;4978733;28;20126;-73
2021/08/11 09:45:13;;;;;;;5.10;2.40;;;;;;;;;;4985077;28;20274;-72
2021/08/11 09:47:53;;;;;;;5.60;2.40;;;;;;;;;;4982148;28;20023;-73
2021/08/11 09:50:19;;;;;;;6.15;2.47;;;;;;;;;;4987370;28;20570;-73
2021/08/11 09:52:46;;;;;;;6.15;2.22;;;;;;;;;;4977542;28;20030;-72
2021/08/11 09:55:12;;;;;;;8.48;2.60;;;;;;;;;;4979699;28;20563;-72
2021/08/11 09:57:39;;;;;;;7.50;2.50;;;;;;;;;;4979400;28;20531;-70
2021/08/11 10:00:05;;;;;;;6.35;2.40;;;;;;;;;;4983922;28;20073;-71
2021/08/11 10:02:31;;;;;;;10.30;2.40;;;;;;;;;;4983135;28;20037;-72
2021/08/11 10:04:57;;;;;;;11.00;3.15;;;;;;;;;;4987667;28;20026;-71
2021/08/11 10:07:23;;;;;;;5.75;2.58;;;;;;;;;;4977365;28;20030;-72
2021/08/11 10:10:03;;;;;;;6.82;3.45;;;;;;;;;;4982336;28;20030;-70
2021/08/11 10:12:29;;;;;;;6.72;2.70;;;;;;;;;;4979849;28;20097;-71
2021/08/11 10:14:57;;;;;;;7.63;2.72;;;;;;;;;;4983152;28;20480;-70
2021/08/11 10:17:24;;;;;;;8.48;3.35;;;;;;;;;;4979736;28;20022;-71
2021/08/11 10:19:51;;;;;;;6.05;2.35;;;;;;;;;;4979752;28;20392;-71
2021/08/11 10:22:21;;;;;;;5.63;2.72;;;;;;;;;;4983202;28;20078;-71
2021/08/11 10:24:50;;;;;;;8.32;2.30;;;;;;;;;;4980494;28;20042;-70
2021/08/11 10:27:18;;;;;;;3.55;1.90;;;;;;;;;;4983966;28;20029;-71
2021/08/11 10:29:44;;;;;;;6.15;2.03;;;;;;;;;;4976286;28;20017;-71
2021/08/11 10:32:10;;;;;;;7.50;2.60;;;;;;;;;;4983121;28;20030;-71
2021/08/11 10:34:36;;;;;;;4.45;1.98;;;;;;;;;;4985994;28;20506;-71
2021/08/11 10:37:02;;;;;;;7.72;2.67;;;;;;;;;;4988001;28;20026;-71
2021/08/11 10:39:29;;;;;;;9.25;1.92;;;;;;;;;;4984428;28;20436;-71
2021/08/11 10:42:00;;;;;;;6.93;2.38;;;;;;;;;;4985846;28;20033;-71
2021/08/11 10:44:26;;;;;;;6.53;2.72;;;;;;;;;;4992248;28;20085;-71
2021/08/11 10:46:57;;;;;;;5.60;2.53;;;;;;;;;;4987447;28;20038;-71
2021/08/11 10:49:27;;;;;;;5.03;2.10;;;;;;;;;;4995683;28;20112;-71
2021/08/11 10:51:59;;;;;;;5.18;2.05;;;;;;;;;;4997291;28;20022;-71
2021/08/11 10:54:25;;;;;;;5.78;2.17;;;;;;;;;;4993025;28;20389;-71
2021/08/11 10:56:52;;;;;;;5.10;2.20;;;;;;;;;;4996268;28;20043;-72
2021/08/11 10:59:25;;;;;;;5.00;2.28;;;;;;;;;;4997806;28;20128;-72
2021/08/11 11:01:51;;;;;;;4.43;2.05;;;;;;;;;;4993869;28;20126;-73
2021/08/11 11:04:36;;;;;;;8.27;2.80;;;;;;;;;;4992449;28;20109;-76
2021/08/11 11:07:08;;;;;;;5.68;2.35;;;;;;;;;;5001484;28;20037;-73
2021/08/11 11:09:34;;;;;;;7.22;2.70;;;;;;;;;;4989783;28;20027;-75
2021/08/11 11:12:20;;;;;;;4.20;1.92;;;;;;;;;;4991279;28;20036;-73
2021/08/11 11:14:46;;;;;;;6.05;2.50;;;;;;;;;;4999733;28;20026;-74
2021/08/11 11:17:12;;;;;;;5.22;2.25;;;;;;;;;;5002868;28;20026;-75
2021/08/11 11:19:58;;;;;;;4.82;2.70;;;;;;;;;;4996250;28;20033;-75
2021/08/11 11:22:34;;;;;;;6.75;2.58;;;;;;;;;;4991521;28;20023;-75
2021/08/11 11:25:00;;;;;;;6.03;2.88;;;;;;;;;;4980583;28;20022;-75
2021/08/11 11:27:41;;;;;;;7.88;2.80;;;;;;;;;;4988993;28;20040;-74
2021/08/11 11:30:09;;;;;;;4.93;2.60;;;;;;;;;;4995279;28;20026;-74
2021/08/11 11:32:36;;;;;;;7.55;2.50;;;;;;;;;;4993791;28;20033;-73
2021/08/11 11:35:22;;;;;;;4.38;2.55;;;;;;;;;;4989258;28;20026;-75
2021/08/11 11:38:05;;;;;;;7.20;2.30;;;;;;;;;;4998232;28;20495;-75
2021/08/11 11:40:32;;;;;;;7.47;2.88;;;;;;;;;;4994239;28;20448;-74
2021/08/11 11:43:22;;;;;;;5.75;2.90;;;;;;;;;;4994581;28;20015;-74
2021/08/11 11:45:49;;;;;;;7.18;3.00;;;;;;;;;;5008501;28;20030;-74
2021/08/11 11:48:15;;;;;;;8.13;2.58;;;;;;;;;;4985796;28;20038;-73
2021/08/11 11:50:43;;;;;;;6.65;2.67;;;;;;;;;;4995571;28;20030;-74
2021/08/11 11:53:10;;;;;;;7.85;2.80;;;;;;;;;;4989388;28;20040;-74
2021/08/11 11:55:38;;;;;;;6.43;2.25;;;;;;;;;;4995619;28;20024;-73
2021/08/11 11:58:13;;;;;;;7.82;3.30;;;;;;;;;;4986120;28;20129;-72
2021/08/11 12:00:39;;;;;;;5.30;3.33;;;;;;;;;;4988365;28;20490;-74
2021/08/11 12:03:05;;;;;;;5.57;2.97;;;;;;;;;;4983193;28;20553;-74
2021/08/11 12:05:44;;;;;;;6.32;3.47;;;;;;;;;;4977492;28;20030;-73
2021/08/11 12:08:11;;;;;;;6.47;3.17;;;;;;;;;;4976038;28;20019;-72
2021/08/11 12:10:39;;;;;;;7.13;3.50;;;;;;;;;;4978765;28;20485;-72
2021/08/11 12:13:05;;;;;;;5.15;2.45;;;;;;;;;;4976910;28;20097;-72
2021/08/11 12:15:41;;;;;;;6.50;2.60;;;;;;;;;;4982873;28;20046;-72
2021/08/11 12:18:14;;;;;;;9.73;3.40;;;;;;;;;;4976450;28;20073;-73
2021/08/11 12:20:40;;;;;;;8.20;2.95;;;;;;;;;;4977896;28;20396;-73
2021/08/11 12:23:26;;;;;;;8.90;3.03;;;;;;;;;;4981134;28;20033;-71
2021/08/11 12:25:55;;;;;;;6.93;3.40;;;;;;;;;;4980965;28;20031;-71
2021/08/11 12:28:22;;;;;;;9.52;3.45;;;;;;;;;;4987652;28;20372;-73
2021/08/11 12:30:56;;;;;;;5.97;2.95;;;;;;;;;;4999601;28;20480;-72
2021/08/11 12:33:23;;;;;;;7.13;3.40;;;;;;;;;;4991273;28;20030;-71
2021/08/11 12:35:51;;;;;;;4.70;2.67;;;;;;;;;;4997633;28;20113;-72
2021/08/11 12:38:30;;;;;;;5.78;3.05;;;;;;;;;;4989680;28;20030;-73
2021/08/11 12:40:56;;;;;;;;;;;;;;;;;;4990892;28;20030;-72
2021/08/11 12:43:22;;;;;;;5.45;3.33;;;;;;;;;;4983009;28;19956;-73
2021/08/11 12:45:49;;;;;;;5.78;3.40;;;;;;;;;;4993413;28;20039;-72
2021/08/11 12:48:41;;;;;;;7.55;3.25;;;;;;;;;;5001195;28;20034;-72
2021/08/11 12:51:19;;;;;;;6.28;3.40;;;;;;;;;;4987422;28;20084;-72
2021/08/11 12:54:00;;;;;;;7.78;3.75;;;;;;;;;;4983949;28;20042;-72
2021/08/11 12:56:26;;;;;;;9.25;3.75;;;;;;;;;;4996765;28;20170;-73
2021/08/11 12:58:58;;;;;;;9.45;4.35;;;;;;;;;;5007213;28;20531;-72
2021/08/11 13:01:40;;;;;;;4.32;2.80;;;;;;;;;;4993827;28;20033;-72
2021/08/11 13:04:24;;;;;;;9.95;4.05;;;;;;;;;;4990094;28;20069;-72
2021/08/11 13:06:51;;;;;;;7.55;3.13;;;;;;;;;;4991127;28;20054;-73
2021/08/11 13:09:21;;;;;;;6.15;2.72;;;;;;;;;;4998845;28;20080;-72
2021/08/11 13:11:50;;;;;;;7.20;3.75;;;;;;;;;;4992003;28;20025;-73
2021/08/11 13:14:16;;;;;;;7.07;3.72;;;;;;;;;;4991437;28;20557;-72
2021/08/11 13:17:01;;;;;;;8.68;3.47;;;;;;;;;;5001840;28;20031;-72
2021/08/11 13:19:27;;;;;;;8.32;3.53;;;;;;;;;;4989885;28;20029;-72
2021/08/11 13:21:54;;;;;;;5.22;3.40;;;;;;;;;;4992825;28;20022;-73
2021/08/11 13:24:20;;;;;;;6.43;3.47;;;;;;;;;;4995376;28;20502;-73
2021/08/11 13:26:49;;;;;;;6.40;3.30;;;;;;;;;;4990850;28;20122;-73
2021/08/11 13:29:29;;;;;;;12.63;3.22;;;;;;;;;;4998634;28;20456;-73
2021/08/11 13:31:56;;;;;;;12.30;3.80;;;;;;;;;;4990174;28;20027;-74
2021/08/11 13:34:22;;;;;;;10.18;4.05;;;;;;;;;;4990143;28;20499;-73
2021/08/11 13:36:48;;;;;;;6.68;2.88;;;;;;;;;;4990745;28;20018;-72
2021/08/11 13:39:14;;;;;;;8.23;4.32;;;;;;;;;;4994826;28;20027;-73
2021/08/11 13:41:40;;;;;;;7.03;3.83;;;;;;;;;;4990153;28;20033;-72
2021/08/11 13:44:06;;;;;;;5.72;3.70;;;;;;;;;;4994214;28;20058;-72
2021/08/11 13:46:32;;;;;;;10.00;4.50;;;;;;;;;;4989984;28;20058;-72
2021/08/11 13:48:58;;;;;;;5.80;4.10;;;;;;;;;;4990991;28;20034;-72
2021/08/11 13:51:24;;;;;;;9.93;5.10;;;;;;;;;;4990157;28;20042;-73
2021/08/11 13:53:50;;;;;;;6.85;3.97;;;;;;;;;;4989685;28;20061;-72
2021/08/11 13:56:21;;;;;;;7.00;3.85;;;;;;;;;;4987383;28;20491;-73
2021/08/11 13:58:47;;;;;;;8.93;4.30;;;;;;;;;;4989722;28;20464;-73
2021/08/11 14:01:13;;;;;;;7.45;4.35;;;;;;;;;;4990034;28;20062;-73
2021/08/11 14:03:38;;;;;;;8.55;4.90;;;;;;;;;;4989720;28;20061;-73
2021/08/11 14:06:04;;;;;;;8.95;4.60;;;;;;;;;;4982920;28;20034;-73
2021/08/11 14:08:30;;;;;;;8.63;5.03;;;;;;;;;;4983022;28;20030;-72
2021/08/11 14:10:56;;;;;;;8.40;4.20;;;;;;;;;;4988706;28;20037;-72
2021/08/11 14:13:22;;;;;;;7.75;3.97;;;;;;;;;;4983881;28;20049;-73
2021/08/11 14:15:49;;;;;;;7.63;4.70;;;;;;;;;;4989350;28;20368;-72
2021/08/11 14:18:15;;;;;;;12.07;5.50;;;;;;;;;;4979355;28;20520;-72
2021/08/11 14:20:41;;;;;;;9.57;4.82;;;;;;;;;;4989781;28;20118;-73
2021/08/11 14:23:07;;;;;;;7.85;4.97;;;;;;;;;;4970242;28;20106;-73
2021/08/11 14:25:33;;;;;;;6.60;4.47;;;;;;;;;;4970748;28;20412;-73
2021/08/11 14:27:59;;;;;;;8.65;4.60;;;;;;;;;;4971804;28;20101;-72
2021/08/11 14:30:25;;;;;;;8.93;5.45;;;;;;;;;;4970100;28;20365;-72
2021/08/11 14:32:51;;;;;;;10.20;5.68;;;;;;;;;;4971597;28;20031;-72
2021/08/11 14:35:18;;;;;;;12.25;5.78;;;;;;;;;;4969801;28;20055;-73
2021/08/11 14:37:44;;;;;;;9.45;5.28;;;;;;;;;;4985665;28;20391;-73